Time;durP1;ratioP1;P1;durP2;ratioP2;P2;SDS_P1;SDS_P2;PMS_P1;PMS_P2;Temp;Humidity;BMP_temperature;BMP_pressure;BME280_temperature;BME280_humidity;BME280_pressure;Samples;Min_cycle;Max_cycle;Signal;HPM_P1;HPM_P2
2023/01/12 00:02:10;;;;;;;2.60;1.83;;;6.10;99.90;5.40;100407.00;;;;4963944;28;88961;-67
2023/01/12 00:04:37;;;;;;;1.70;1.57;;;6.30;99.90;5.30;100402.00;;;;4968363;28;88045;-66
2023/01/12 00:07:10;;;;;;;2.20;1.13;;;5.50;99.90;5.30;100398.00;;;;4972217;28;87932;-67
2023/01/12 00:09:36;;;;;;;5.37;1.53;;;5.50;99.90;5.20;100406.00;;;;4970394;28;87896;-67
2023/01/12 00:12:08;;;;;;;1.73;1.17;;;5.40;99.90;5.20;100406.00;;;;4972553;28;117776;-67
2023/01/12 00:14:35;;;;;;;3.87;1.50;;;5.40;99.90;5.10;100415.00;;;;4974142;28;87782;-67
2023/01/12 00:17:02;;;;;;;3.20;1.53;;;5.40;99.90;5.10;100403.00;;;;4970617;28;88101;-66
2023/01/12 00:19:28;;;;;;;1.43;1.03;;;5.30;99.90;5.00;100403.00;;;;4975737;28;88126;-67
2023/01/12 00:24:31;;;;;;;3.83;1.43;;;5.20;99.90;5.00;100398.00;;;;4973805;28;87795;-67
2023/01/12 00:26:59;;;;;;;3.83;1.80;;;5.20;99.90;4.90;100397.00;;;;4974794;28;88976;-67
2023/01/12 00:29:25;;;;;;;3.60;1.53;;;5.20;99.90;4.90;100389.00;;;;4971627;28;88079;-67
2023/01/12 00:31:52;;;;;;;1.80;1.60;;;5.10;99.90;4.90;100387.00;;;;4971015;28;87877;-67
2023/01/12 00:34:18;;;;;;;3.43;1.50;;;5.80;99.90;4.80;100365.00;;;;4969877;28;87855;-66
2023/01/12 00:36:46;;;;;;;3.47;1.73;;;5.10;99.90;4.80;100371.00;;;;4972481;28;98449;-67
2023/01/12 00:39:12;;;;;;;2.93;1.10;;;5.00;99.90;4.80;100373.00;;;;4972101;28;88319;-67
2023/01/12 00:47:10;;;;;;;1.63;1.30;;;4.90;99.90;4.70;100406.00;;;;4966170;28;87973;-66
2023/01/12 00:49:38;;;;;;;1.63;1.10;;;5.40;99.90;4.60;100409.00;;;;4970080;28;110942;-66
2023/01/12 00:52:06;;;;;;;0.83;0.67;;;4.80;99.90;4.60;100398.00;;;;4976084;28;88963;-66
2023/01/12 00:54:33;;;;;;;2.77;1.13;;;4.90;99.90;4.60;100396.00;;;;4970051;28;91218;-66
2023/01/12 00:56:59;;;;;;;1.50;1.00;;;4.80;99.90;4.50;100385.00;;;;4968844;28;87836;-66
2023/01/12 00:59:25;;;;;;;1.93;1.63;;;4.70;99.90;4.50;100394.00;;;;4971225;28;88381;-67
2023/01/12 01:01:50;;;;;;;1.70;1.60;;;4.70;99.90;4.40;100387.00;;;;4970641;28;116891;-66
2023/01/12 01:04:16;;;;;;;3.17;1.10;;;4.60;99.90;4.40;100391.00;;;;4970003;28;109844;-67
2023/01/12 01:06:42;;;;;;;2.10;1.47;;;5.50;99.90;4.40;100392.00;;;;4968513;28;108218;-66
2023/01/12 01:09:07;;;;;;;1.93;1.50;;;4.60;99.90;4.40;100401.00;;;;4970390;28;115927;-66
2023/01/12 01:11:34;;;;;;;2.50;0.90;;;4.60;99.90;4.30;100390.00;;;;4972322;28;88096;-67
2023/01/12 01:14:01;;;;;;;1.23;0.70;;;4.60;99.90;4.40;100380.00;;;;4970552;27;88178;-67
2023/01/12 01:16:28;;;;;;;2.60;1.53;;;4.60;99.90;4.40;100389.00;;;;4967591;28;89077;-67
2023/01/12 01:18:55;;;;;;;1.33;1.17;;;4.60;99.90;4.30;100387.00;;;;4975332;28;89038;-66
2023/01/12 01:21:20;;;;;;;1.53;1.00;;;4.70;99.90;4.30;100382.00;;;;4974309;28;96906;-67
2023/01/12 01:23:46;;;;;;;6.07;0.93;;;4.50;99.90;4.30;100389.00;;;;4971739;28;110905;-66
2023/01/12 01:26:17;;;;;;;3.03;0.97;;;4.60;99.90;4.30;100374.00;;;;4974523;28;109492;-67
2023/01/12 01:28:43;;;;;;;1.00;0.90;;;4.50;99.90;4.40;100374.00;;;;4970054;28;88168;-67
2023/01/12 01:31:19;;;;;;;2.87;1.20;;;4.60;99.90;4.40;100377.00;;;;4971020;28;88127;-67
2023/01/12 01:33:46;;;;;;;6.13;1.50;;;4.60;99.90;4.40;100385.00;;;;4975315;28;87082;-66
2023/01/12 01:36:13;;;;;;;3.43;1.23;;;4.60;99.90;4.50;100378.00;;;;4971720;28;99662;-66
2023/01/12 01:38:39;;;;;;;3.10;0.73;;;4.60;99.90;4.60;100383.00;;;;4972460;28;88408;-68
2023/01/12 01:41:06;;;;;;;1.50;1.00;;;4.60;99.90;4.70;100381.00;;;;4971802;28;115866;-66
2023/01/12 01:44:05;;;;;;;3.30;1.10;;;4.70;99.90;4.70;100382.00;;;;4970958;28;100037;-66
2023/01/12 01:46:56;;;;;;;3.73;0.90;;;4.90;99.90;4.80;100378.00;;;;4972920;28;88228;-66
2023/01/12 01:49:47;;;;;;;1.30;0.73;;;5.00;99.90;4.90;100365.00;;;;4972909;28;87931;-66
2023/01/12 01:52:19;;;;;;;3.60;1.33;;;5.00;99.90;4.90;100373.00;;;;4971732;28;109766;-66
2023/01/12 01:55:24;;;;;;;0.50;0.50;;;5.40;99.90;4.90;100374.00;;;;4970719;28;93175;-65
2023/01/12 01:58:20;;;;;;;1.60;0.90;;;5.10;99.90;4.90;100359.00;;;;4969736;28;87728;-65
2023/01/12 02:00:45;;;;;;;1.57;1.13;;;5.10;99.90;5.00;100384.00;;;;4970298;28;100642;-65
2023/01/12 02:03:12;;;;;;;4.83;0.73;;;6.00;99.90;5.00;100391.00;;;;4971927;28;87908;-65
2023/01/12 02:05:44;;;;;;;2.43;0.90;;;5.10;99.90;5.10;100381.00;;;;4969640;28;89531;-65
2023/01/12 02:08:30;;;;;;;1.03;0.90;;;5.20;99.90;5.10;100389.00;;;;4966777;28;95469;-66
2023/01/12 02:10:59;;;;;;;4.73;1.00;;;5.40;99.90;5.10;100396.00;;;;4968849;28;87787;-65
2023/01/12 02:16:30;;;;;;;0.53;0.53;;;6.00;99.90;5.30;100390.00;;;;4970813;28;87774;-65
2023/01/12 02:19:32;;;;;;;2.37;0.80;;;5.50;99.90;5.40;100385.00;;;;4977121;28;109614;-64
2023/01/12 02:22:19;;;;;;;2.17;1.10;;;5.60;99.90;5.60;100375.00;;;;4976994;28;111461;-65
2023/01/12 02:25:13;;;;;;;0.63;0.63;;;6.50;99.90;5.60;100370.00;;;;4977543;28;87773;-65
2023/01/12 02:28:19;;;;;;;0.80;0.60;;;5.70;99.90;5.60;100364.00;;;;4974257;28;87306;-65
2023/01/12 02:31:15;;;;;;;0.67;0.67;;;5.80;99.90;5.60;100345.00;;;;4975011;28;87999;-64
2023/01/12 02:34:26;;;;;;;0.70;0.47;;;5.80;99.90;5.50;100335.00;;;;4973601;28;87851;-65
2023/01/12 02:37:13;;;;;;;2.60;0.90;;;5.80;99.90;5.60;100338.00;;;;4974358;28;90287;-66
2023/01/12 02:40:02;;;;;;;1.63;0.70;;;5.80;99.90;5.60;100337.00;;;;4971400;28;93459;-66
2023/01/12 02:42:53;;;;;;;3.03;1.17;;;5.70;99.90;5.60;100345.00;;;;4973083;28;94019;-65
2023/01/12 02:46:12;;;;;;;2.93;0.73;;;5.80;99.90;5.60;100334.00;;;;4967809;28;88728;-66
2023/01/12 02:48:54;;;;;;;0.63;0.63;;;5.80;99.90;5.60;100335.00;;;;4977468;28;87825;-67
2023/01/12 02:51:34;;;;;;;3.87;1.13;;;5.90;99.90;5.60;100314.00;;;;4973619;28;88450;-67
2023/01/12 02:54:11;;;;;;;2.67;0.77;;;5.80;99.90;5.60;100326.00;;;;4973051;28;87934;-66
2023/01/12 02:56:43;;;;;;;1.17;0.60;;;5.80;99.90;5.60;100335.00;;;;4969295;28;93844;-66
2023/01/12 02:59:22;;;;;;;6.17;0.60;;;6.70;99.90;5.80;100332.00;;;;4971644;28;87905;-66
2023/01/12 03:01:50;;;;;;;1.57;0.60;;;5.90;99.90;5.80;100326.00;;;;4973516;28;87992;-65
2023/01/12 03:04:18;;;;;;;3.43;1.33;;;6.00;99.90;5.90;100337.00;;;;4983110;27;103320;-64
2023/01/12 03:07:10;;;;;;;2.00;0.67;;;6.00;99.90;5.90;100334.00;;;;4972586;28;88128;-66
2023/01/12 03:09:42;;;;;;;3.10;1.00;;;6.00;99.90;5.90;100321.00;;;;4971935;28;109697;-65
2023/01/12 03:12:23;;;;;;;4.63;1.20;;;6.00;99.90;5.90;100320.00;;;;4967538;28;89262;-67
2023/01/12 03:14:50;;;;;;;0.63;0.53;;;6.30;99.90;6.00;100311.00;;;;4973083;28;88114;-65
2023/01/12 03:17:31;;;;;;;2.57;1.20;;;6.00;99.90;6.10;100305.00;;;;4968387;28;114881;-67
2023/01/12 03:20:19;;;;;;;0.90;0.57;;;6.30;99.90;6.10;100310.00;;;;4968624;28;94911;-65
2023/01/12 03:22:48;;;;;;;4.00;0.90;;;6.30;99.90;6.10;100302.00;;;;4973372;28;88147;-65
2023/01/12 03:25:16;;;;;;;1.53;0.63;;;6.30;99.90;6.10;100293.00;;;;4971188;28;87665;-66
2023/01/12 03:27:47;;;;;;;0.50;0.50;;;6.30;99.90;6.20;100295.00;;;;4968414;28;109291;-65
2023/01/12 03:30:22;;;;;;;3.60;1.17;;;6.30;99.90;6.20;100294.00;;;;4965695;28;108966;-66
2023/01/12 03:32:49;;;;;;;4.07;1.37;;;6.70;99.90;6.30;100293.00;;;;4972686;28;87701;-66
2023/01/12 03:35:16;;;;;;;2.40;0.90;;;6.40;99.90;6.50;100283.00;;;;4978060;28;108779;-66
2023/01/12 03:37:59;;;;;;;6.50;0.93;;;6.50;99.90;6.60;100293.00;;;;4972390;28;105479;-67
2023/01/12 03:40:37;;;;;;;0.67;0.63;;;6.60;99.90;6.70;100297.00;;;;4972791;28;109861;-66
2023/01/12 03:43:07;;;;;;;1.53;0.60;;;6.80;99.90;6.80;100294.00;;;;4974703;28;88037;-65
2023/01/12 03:45:40;;;;;;;0.93;0.83;;;7.70;99.90;6.80;100289.00;;;;4970655;28;87745;-66
2023/01/12 03:48:17;;;;;;;1.00;0.77;;;6.90;99.90;6.90;100294.00;;;;4973859;28;96413;-66
2023/01/12 03:50:59;;;;;;;0.93;0.83;;;7.00;99.90;7.00;100285.00;;;;4971383;28;107863;-66
2023/01/12 03:53:25;;;;;;;8.00;0.80;;;7.10;99.90;7.00;100288.00;;;;4970615;28;96935;-66
2023/01/12 03:55:59;;;;;;;2.20;0.63;;;7.70;99.90;7.00;100288.00;;;;4971908;28;88786;-66
2023/01/12 03:58:25;;;;;;;4.27;1.10;;;7.20;99.90;7.10;100280.00;;;;4972145;28;108941;-67
2023/01/12 04:00:51;;;;;;;2.13;0.87;;;7.20;99.90;7.20;100285.00;;;;4973511;28;115469;-66
2023/01/12 04:03:17;;;;;;;3.57;0.90;;;7.30;99.90;7.20;100279.00;;;;4970806;28;110935;-66
2023/01/12 04:05:44;;;;;;;2.03;0.87;;;8.00;99.90;7.20;100290.00;;;;4974716;28;87992;-66
2023/01/12 04:08:12;;;;;;;2.77;0.90;;;7.30;99.90;7.20;100281.00;;;;4971538;28;103401;-68
2023/01/12 04:10:38;;;;;;;1.20;0.80;;;7.30;99.90;7.20;100288.00;;;;4973943;28;87969;-67
2023/01/12 04:13:04;;;;;;;1.67;0.90;;;7.30;99.90;7.10;100276.00;;;;4970895;28;112532;-67
2023/01/12 04:15:29;;;;;;;2.07;0.67;;;7.30;99.90;7.10;100275.00;;;;4971661;28;109708;-68
2023/01/12 04:17:55;;;;;;;0.57;0.47;;;7.20;99.90;7.00;100269.00;;;;4973636;28;88052;-67
2023/01/12 04:20:22;;;;;;;3.00;0.70;;;7.20;99.90;6.90;100268.00;;;;4973013;28;119870;-66
2023/01/12 04:22:47;;;;;;;0.70;0.50;;;7.40;99.90;6.90;100264.00;;;;4974266;28;109719;-66
2023/01/12 04:25:17;;;;;;;5.37;1.33;;;7.50;99.90;6.80;100279.00;;;;4974365;27;108749;-66
2023/01/12 04:27:54;;;;;;;3.97;1.00;;;7.00;99.90;6.80;100281.00;;;;4973497;28;103104;-66
2023/01/12 04:30:23;;;;;;;1.43;0.63;;;7.00;99.90;6.70;100262.00;;;;4975718;28;88593;-65
2023/01/12 04:32:50;;;;;;;2.70;1.07;;;7.60;99.90;6.70;100273.00;;;;4975868;28;87799;-67
2023/01/12 04:35:16;;;;;;;0.47;0.43;;;6.80;99.90;6.60;100268.00;;;;4972780;28;91783;-67
2023/01/12 04:37:43;;;;;;;0.93;0.73;;;6.80;99.90;6.60;100271.00;;;;4971978;28;107177;-65
2023/01/12 04:40:11;;;;;;;1.53;0.80;;;6.70;99.90;6.60;100263.00;;;;4970611;28;103457;-66
2023/01/12 04:45:21;;;;;;;3.13;0.90;;;6.70;99.90;6.50;100270.00;;;;4971140;28;89207;-67
2023/01/12 04:47:47;;;;;;;0.70;0.50;;;6.90;99.90;6.50;100254.00;;;;4974440;28;88256;-65
2023/01/12 04:50:13;;;;;;;1.30;0.43;;;7.40;99.90;6.50;100252.00;;;;4971740;27;118229;-67
2023/01/12 04:52:39;;;;;;;2.30;1.13;;;6.70;99.90;6.60;100249.00;;;;4972287;28;87811;-67
2023/01/12 04:55:05;;;;;;;2.03;1.23;;;7.00;99.90;6.60;100249.00;;;;4977253;27;109668;-65
2023/01/12 04:57:31;;;;;;;1.97;1.00;;;6.70;99.90;6.60;100230.00;;;;4970166;28;89802;-66
2023/01/12 04:59:57;;;;;;;0.67;0.67;;;6.80;99.90;6.60;100244.00;;;;4971163;28;117471;-67
2023/01/12 05:02:22;;;;;;;5.83;0.87;;;6.80;99.90;6.60;100245.00;;;;4972895;28;87678;-65
2023/01/12 05:04:48;;;;;;;1.13;1.03;;;7.60;99.90;6.70;100240.00;;;;4973009;28;108699;-66
2023/01/12 05:07:15;;;;;;;0.97;0.70;;;6.80;99.90;6.70;100231.00;;;;4972557;28;118320;-65
2023/01/12 05:12:26;;;;;;;4.07;1.00;;;7.00;99.90;6.90;100238.00;;;;4971018;28;87665;-65
2023/01/12 05:14:52;;;;;;;3.10;1.23;;;6.90;99.90;6.90;100235.00;;;;4974434;28;87892;-65
2023/01/12 05:17:18;;;;;;;1.33;0.63;;;7.60;99.90;7.00;100231.00;;;;4972831;28;98799;-66
2023/01/12 05:19:43;;;;;;;3.03;0.50;;;7.10;99.90;7.00;100239.00;;;;4973302;28;88604;-65
2023/01/12 05:22:09;;;;;;;1.10;1.00;;;7.10;99.90;7.10;100230.00;;;;4969974;28;109969;-65
2023/01/12 05:24:35;;;;;;;1.50;0.83;;;7.20;99.90;7.10;100235.00;;;;4969564;28;105661;-64
2023/01/12 05:27:01;;;;;;;3.40;0.83;;;8.00;99.90;7.20;100242.00;;;;4988320;27;117968;-66
2023/01/12 05:29:27;;;;;;;1.87;0.70;;;7.30;99.90;7.30;100241.00;;;;4972424;28;89665;-66
2023/01/12 05:31:53;;;;;;;2.10;0.80;;;7.40;99.90;7.30;100237.00;;;;4971513;28;87882;-66
2023/01/12 05:34:19;;;;;;;8.43;1.53;;;7.40;99.90;7.40;100230.00;;;;4969799;28;104669;-66
2023/01/12 05:36:46;;;;;;;3.40;1.10;;;7.50;99.90;7.40;100232.00;;;;4970492;27;88121;-66
2023/01/12 05:39:11;;;;;;;4.13;1.03;;;7.60;99.90;7.50;100231.00;;;;4975965;28;88425;-68
2023/01/12 05:43:48;;;;;;;1.53;0.67;;;8.20;99.90;7.60;100218.00;;;;4969666;28;101786;-66
2023/01/12 05:44:23;;;;;;;2.33;1.03;;;7.60;99.90;7.60;100220.00;;;;4964684;28;87872;-66
2023/01/12 05:46:48;;;;;;;0.67;0.60;;;7.70;99.90;7.50;100218.00;;;;4968440;28;117570;-66
2023/01/12 05:49:14;;;;;;;1.67;0.93;;;8.40;99.90;7.50;100202.00;;;;4969728;28;117330;-66
2023/01/12 05:51:39;;;;;;;3.07;1.00;;;7.60;99.90;7.60;100211.00;;;;4968846;28;109125;-66
2023/01/12 05:54:05;;;;;;;1.13;0.73;;;7.60;99.90;7.60;100218.00;;;;4971538;28;108856;-68
2023/01/12 05:56:32;;;;;;;1.43;0.70;;;7.70;99.90;7.70;100206.00;;;;4967961;28;109075;-66
2023/01/12 05:59:00;;;;;;;3.83;0.80;;;7.80;99.90;7.70;100204.00;;;;4970649;28;89000;-66
2023/01/12 06:01:30;;;;;;;0.80;0.80;;;7.80;99.90;7.80;100202.00;;;;4973488;28;87902;-66
2023/01/12 06:03:59;;;;;;;2.60;1.03;;;7.90;99.90;7.80;100203.00;;;;4970454;28;87767;-67
2023/01/12 06:06:29;;;;;;;2.60;0.97;;;7.90;99.90;7.90;100198.00;;;;4970320;28;88626;-67
2023/01/12 06:08:56;;;;;;;0.53;0.53;;;7.90;99.90;7.90;100213.00;;;;4968786;28;87751;-66
2023/01/12 06:14:08;;;;;;;4.80;1.27;;;8.00;99.90;8.00;100184.00;;;;4971993;28;88006;-65
2023/01/12 06:16:39;;;;;;;3.20;0.50;;;8.10;99.90;8.00;100200.00;;;;4971567;28;88117;-66
2023/01/12 06:19:04;;;;;;;3.07;0.90;;;8.20;99.90;8.10;100205.00;;;;4979416;28;87705;-65
2023/01/12 06:21:33;;;;;;;4.07;0.53;;;8.20;99.90;8.10;100195.00;;;;4969806;28;97732;-66
2023/01/12 06:23:59;;;;;;;4.00;1.00;;;8.20;99.90;8.10;100207.00;;;;4975710;28;88835;-64
2023/01/12 06:26:25;;;;;;;1.07;0.70;;;8.20;99.90;8.20;100199.00;;;;4972105;28;117855;-65
2023/01/12 06:28:51;;;;;;;1.70;0.63;;;8.30;99.90;8.20;100208.00;;;;4968633;28;87844;-65
2023/01/12 06:31:16;;;;;;;1.30;0.83;;;8.40;99.90;8.30;100199.00;;;;4954016;28;111039;-65
2023/01/12 06:33:42;;;;;;;1.13;0.60;;;8.40;99.90;8.40;100198.00;;;;4966816;28;109435;-66
2023/01/12 06:36:09;;;;;;;0.53;0.53;;;8.40;99.90;8.40;100198.00;;;;4970265;28;88709;-65
2023/01/12 06:38:39;;;;;;;3.63;1.27;;;8.40;99.90;8.50;100207.00;;;;4971128;28;87956;-65
2023/01/12 06:42:27;;;;;;;1.07;0.60;;;8.50;99.90;8.50;100198.00;;;;4971697;28;87065;-66
2023/01/12 06:43:57;;;;;;;1.37;0.70;;;8.50;99.90;8.60;100202.00;;;;4969397;28;88041;-65
2023/01/12 06:46:25;;;;;;;1.70;0.47;;;8.70;99.90;8.60;100208.00;;;;4968242;28;87933;-65
2023/01/12 06:48:51;;;;;;;0.40;0.40;;;8.70;99.90;8.60;100203.00;;;;4965140;28;88845;-65
2023/01/12 06:51:16;;;;;;;3.13;0.50;;;8.70;99.90;8.60;100189.00;;;;4966730;28;110248;-65
2023/01/12 06:53:42;;;;;;;4.50;0.87;;;8.70;99.90;8.60;100193.00;;;;4968879;28;88156;-66
2023/01/12 06:56:08;;;;;;;0.87;0.50;;;8.70;99.90;8.60;100194.00;;;;4970932;28;117052;-66
2023/01/12 06:58:33;;;;;;;0.80;0.80;;;8.70;99.90;8.70;100183.00;;;;4968075;28;116784;-67
2023/01/12 07:01:03;;;;;;;1.67;0.73;;;8.70;99.90;8.70;100192.00;;;;4971226;28;110117;-67
2023/01/12 07:03:29;;;;;;;0.70;0.60;;;8.80;99.90;8.70;100196.00;;;;4969956;28;103374;-67
2023/01/12 07:05:59;;;;;;;0.30;0.30;;;8.80;99.90;8.70;100192.00;;;;4966489;28;117462;-67
2023/01/12 07:08:24;;;;;;;5.53;0.60;;;8.80;99.90;8.70;100192.00;;;;4969031;28;90964;-68
2023/01/12 07:10:50;;;;;;;2.23;0.80;;;8.80;99.90;8.80;100199.00;;;;4969606;28;109243;-68
2023/01/12 07:13:16;;;;;;;7.67;0.83;;;8.80;99.90;8.80;100193.00;;;;4970142;28;102324;-69
2023/01/12 07:15:41;;;;;;;0.50;0.47;;;8.90;99.90;8.80;100198.00;;;;4975401;28;87987;-69
2023/01/12 07:18:07;;;;;;;8.47;1.37;;;8.90;99.90;8.80;100208.00;;;;4971631;28;116714;-66
2023/01/12 07:20:33;;;;;;;3.03;1.43;;;8.90;99.90;8.80;100201.00;;;;4971680;28;102626;-67
2023/01/12 07:22:59;;;;;;;1.33;1.00;;;8.90;99.90;8.80;100206.00;;;;4974129;28;87971;-67
2023/01/12 07:25:25;;;;;;;3.50;1.13;;;8.90;99.90;8.80;100216.00;;;;4971443;27;89057;-67
2023/01/12 07:27:54;;;;;;;6.37;1.17;;;8.90;99.90;8.80;100206.00;;;;4978415;28;87377;-67
2023/01/12 07:30:21;;;;;;;1.53;0.80;;;8.90;99.90;8.80;100208.00;;;;4972005;28;90649;-69
2023/01/12 07:32:51;;;;;;;0.80;0.70;;;9.00;99.90;8.90;100207.00;;;;4975212;28;87714;-68
2023/01/12 07:35:17;;;;;;;1.57;0.73;;;8.90;99.90;8.90;100203.00;;;;4969377;28;90666;-68
2023/01/12 07:37:51;;;;;;;2.10;0.60;;;8.90;99.90;8.90;100196.00;;;;4975245;28;88939;-69
2023/01/12 07:40:17;;;;;;;2.77;0.60;;;9.00;99.90;8.90;100207.00;;;;4975989;28;88048;-66
2023/01/12 07:42:43;;;;;;;2.80;0.70;;;9.00;99.90;9.00;100206.00;;;;4973329;28;109430;-69
2023/01/12 07:45:09;;;;;;;1.77;0.93;;;9.00;99.90;9.00;100203.00;;;;4975757;28;89602;-69
2023/01/12 07:47:35;;;;;;;1.90;0.53;;;9.10;99.90;9.00;100208.00;;;;4975444;28;109652;-66
2023/01/12 07:50:00;;;;;;;1.17;0.77;;;9.10;99.90;9.00;100209.00;;;;4972211;28;109906;-65
2023/01/12 07:52:26;;;;;;;2.47;0.77;;;9.10;99.90;9.00;100217.00;;;;4973201;27;87892;-66
2023/01/12 07:54:52;;;;;;;1.33;0.57;;;9.10;99.90;9.00;100204.00;;;;4973438;28;100254;-65
2023/01/12 07:57:17;;;;;;;0.83;0.70;;;9.10;99.90;9.00;100205.00;;;;4979760;28;117208;-66
2023/01/12 07:59:43;;;;;;;0.90;0.77;;;9.10;99.90;9.00;100201.00;;;;4978939;28;110020;-69
2023/01/12 08:02:15;;;;;;;2.10;0.60;;;9.10;99.90;9.00;100181.00;;;;4975440;28;108513;-68
2023/01/12 08:04:42;;;;;;;1.70;0.60;;;9.10;99.90;9.10;100187.00;;;;4972329;28;88752;-66
2023/01/12 08:07:09;;;;;;;3.20;1.07;;;9.10;99.90;9.10;100182.00;;;;4975694;28;102099;-66
2023/01/12 08:09:35;;;;;;;2.67;0.73;;;9.20;99.90;9.20;100191.00;;;;4974028;28;87839;-66
2023/01/12 08:12:00;;;;;;;0.70;0.60;;;9.20;99.90;9.20;100184.00;;;;4976036;28;108943;-67
2023/01/12 08:14:38;;;;;;;1.27;0.57;;;9.20;99.90;9.20;100201.00;;;;4976392;28;103094;-67
2023/01/12 08:17:12;;;;;;;1.13;0.57;;;9.30;99.90;9.20;100189.00;;;;4973582;28;94490;-68
2023/01/12 08:19:54;;;;;;;2.03;0.97;;;9.30;99.90;9.20;100185.00;;;;4979172;28;100104;-67
2023/01/12 08:22:28;;;;;;;1.63;0.93;;;9.30;99.90;9.20;100200.00;;;;4978355;28;87877;-68
2023/01/12 08:25:05;;;;;;;0.93;0.60;;;9.30;99.90;9.20;100195.00;;;;4975086;28;87955;-67
2023/01/12 08:27:33;;;;;;;0.87;0.50;;;9.30;99.90;9.30;100191.00;;;;4972673;28;88739;-67
2023/01/12 08:30:01;;;;;;;2.33;1.03;;;9.30;99.90;9.30;100189.00;;;;4975749;28;110740;-67
2023/01/12 08:32:28;;;;;;;11.27;0.90;;;9.30;99.90;9.30;100184.00;;;;4976287;28;87920;-66
2023/01/12 08:34:59;;;;;;;2.10;0.50;;;9.40;99.90;9.30;100191.00;;;;4973401;28;88406;-65
2023/01/12 08:37:25;;;;;;;2.47;0.87;;;9.40;99.90;9.40;100203.00;;;;4974327;28;87709;-65
2023/01/12 08:39:51;;;;;;;1.13;0.60;;;9.40;99.90;9.50;100195.00;;;;4972427;28;109776;-68
2023/01/12 08:42:19;;;;;;;5.00;1.13;;;9.50;99.90;9.50;100198.00;;;;4974829;28;88113;-66
2023/01/12 08:44:44;;;;;;;2.43;0.70;;;9.60;99.90;9.60;100185.00;;;;4974446;28;87305;-66
2023/01/12 08:47:17;;;;;;;2.43;0.77;;;9.60;99.90;9.60;100183.00;;;;4971909;28;87791;-67
2023/01/12 08:49:44;;;;;;;3.40;0.77;;;9.70;99.90;9.70;100190.00;;;;4974711;28;91216;-67
2023/01/12 08:52:11;;;;;;;0.60;0.50;;;9.70;99.90;9.70;100180.00;;;;4970164;28;88703;-66
2023/01/12 08:54:37;;;;;;;3.07;0.90;;;9.70;99.90;9.70;100169.00;;;;4972371;28;107081;-66
2023/01/12 08:57:03;;;;;;;1.50;0.70;;;9.70;99.90;9.70;100173.00;;;;4975333;28;92335;-65
2023/01/12 08:59:28;;;;;;;2.73;1.07;;;9.90;99.90;9.70;100173.00;;;;4972459;28;87923;-68
2023/01/12 09:01:55;;;;;;;2.70;0.83;;;9.80;99.90;9.70;100170.00;;;;4969890;28;99184;-66
2023/01/12 09:04:21;;;;;;;5.47;1.50;;;9.80;99.90;9.80;100164.00;;;;4968368;28;88112;-68
2023/01/12 09:06:47;;;;;;;1.03;0.77;;;9.80;99.90;9.80;100169.00;;;;4987476;27;109325;-67
2023/01/12 09:09:17;;;;;;;2.67;0.67;;;9.90;99.90;9.80;100157.00;;;;4969955;28;87171;-67
2023/01/12 09:11:45;;;;;;;1.97;0.87;;;9.80;99.90;9.80;100154.00;;;;4974109;28;88019;-66
2023/01/12 09:14:12;;;;;;;2.13;0.83;;;9.90;99.90;9.90;100160.00;;;;4972727;28;100578;-67
2023/01/12 09:16:38;;;;;;;1.73;0.73;;;9.90;99.90;9.90;100164.00;;;;4971681;28;109377;-66
2023/01/12 09:19:05;;;;;;;2.40;0.60;;;9.90;99.90;9.90;100146.00;;;;4970611;28;87714;-67
2023/01/12 09:21:31;;;;;;;1.73;0.70;;;9.90;99.90;9.90;100148.00;;;;4970043;28;104215;-66
2023/01/12 09:23:59;;;;;;;1.07;0.40;;;9.90;99.90;10.00;100152.00;;;;4969999;28;88048;-65
2023/01/12 09:26:30;;;;;;;0.30;0.30;;;10.50;99.90;10.00;100151.00;;;;4968880;28;88823;-67
2023/01/12 09:28:58;;;;;;;1.33;0.73;;;10.00;99.90;10.00;100141.00;;;;4973853;28;87920;-66
2023/01/12 09:31:25;;;;;;;5.67;0.73;;;10.10;99.90;10.10;100146.00;;;;4972433;28;87830;-66
2023/01/12 09:33:52;;;;;;;0.90;0.40;;;10.10;99.90;10.10;100129.00;;;;4972674;28;88182;-65
2023/01/12 09:36:21;;;;;;;3.83;0.70;;;10.10;99.90;10.10;100142.00;;;;4970075;28;88459;-66
2023/01/12 09:38:48;;;;;;;0.47;0.43;;;10.10;99.90;10.10;100134.00;;;;4968984;28;103015;-66
2023/01/12 09:47:38;;;;;;;2.20;0.63;;;10.10;99.90;10.00;100137.00;;;;4968968;28;87849;-66
2023/01/12 09:50:19;;;;;;;0.27;0.27;;;10.10;99.90;10.10;100128.00;;;;4970434;28;89291;-65
2023/01/12 09:53:02;;;;;;;2.37;0.40;;;10.10;99.90;10.10;100129.00;;;;4956694;28;87930;-66
2023/01/12 09:55:49;;;;;;;0.67;0.50;;;10.10;99.90;10.10;100121.00;;;;4967511;28;88000;-67
2023/01/12 09:58:51;;;;;;;1.10;0.97;;;10.10;99.90;10.10;100117.00;;;;4967303;28;88079;-67
2023/01/12 10:01:18;;;;;;;3.10;0.83;;;10.10;99.90;10.10;100109.00;;;;4971363;28;95823;-66
2023/01/12 10:03:44;;;;;;;1.00;0.60;;;10.20;99.90;10.10;100107.00;;;;4968606;28;107986;-68
2023/01/12 10:06:18;;;;;;;2.73;1.03;;;10.20;99.90;10.10;100089.00;;;;4970824;28;90337;-68
2023/01/12 10:08:51;;;;;;;2.90;0.40;;;10.20;99.90;10.10;100092.00;;;;4968347;28;89006;-67
2023/01/12 10:11:59;;;;;;;0.87;0.77;;;10.20;99.90;10.10;100084.00;;;;4971045;28;88149;-66
2023/01/12 10:15:12;;;;;;;1.70;0.30;;;10.20;99.90;10.10;100085.00;;;;4967916;28;100680;-66
2023/01/12 10:18:01;;;;;;;3.60;1.23;;;10.20;99.90;10.10;100067.00;;;;4972874;28;109408;-66
2023/01/12 10:20:39;;;;;;;1.33;0.73;;;10.20;99.90;10.10;100062.00;;;;4968595;28;88085;-67
2023/01/12 10:23:17;;;;;;;0.37;0.37;;;10.20;99.90;10.10;100064.00;;;;4972194;28;88056;-67
2023/01/12 10:25:50;;;;;;;7.03;0.80;;;10.20;99.90;10.10;100061.00;;;;4975278;28;88056;-65
2023/01/12 10:28:32;;;;;;;4.33;1.07;;;10.20;99.90;10.10;100059.00;;;;4974152;28;87347;-65
2023/01/12 10:30:59;;;;;;;1.70;0.90;;;10.20;99.90;10.20;100065.00;;;;4971700;28;88162;-65
2023/01/12 10:33:35;;;;;;;4.63;0.90;;;10.20;99.90;10.10;100055.00;;;;4971135;28;87624;-66
2023/01/12 10:36:18;;;;;;;1.40;0.63;;;10.20;99.90;10.20;100060.00;;;;4972278;28;90239;-66
2023/01/12 10:38:58;;;;;;;2.70;0.77;;;10.30;99.90;10.30;100058.00;;;;4968899;28;107566;-67
2023/01/12 10:41:26;;;;;;;1.97;0.83;;;10.30;99.90;10.30;100048.00;;;;4968220;28;88451;-67
2023/01/12 10:43:57;;;;;;;1.23;0.63;;;10.30;99.90;10.30;100049.00;;;;4984521;27;93682;-65
2023/01/12 10:46:26;;;;;;;1.27;0.47;;;9.80;99.90;10.40;100038.00;;;;4969106;28;105912;-65
2023/01/12 10:49:14;;;;;;;1.97;0.70;;;10.40;99.90;10.40;100026.00;;;;4966714;28;88806;-65
2023/01/12 10:51:59;;;;;;;2.03;0.77;;;10.40;99.90;10.50;100040.00;;;;4971587;28;87888;-67
2023/01/12 10:54:30;;;;;;;3.03;0.60;;;10.60;99.90;10.50;100035.00;;;;4989737;27;89684;-67
2023/01/12 10:57:12;;;;;;;1.60;0.60;;;10.60;99.90;10.50;100024.00;;;;4978584;28;87937;-65
2023/01/12 10:59:39;;;;;;;2.17;0.83;;;10.60;99.90;10.50;100027.00;;;;4983687;27;88039;-67
2023/01/12 11:02:05;;;;;;;1.50;0.53;;;10.60;99.90;10.50;100023.00;;;;4974076;28;100273;-67
2023/01/12 11:04:44;;;;;;;1.90;0.57;;;10.60;99.90;10.50;100010.00;;;;4966003;27;88021;-67
2023/01/12 11:07:27;;;;;;;1.60;0.70;;;10.60;99.90;10.40;100022.00;;;;4975177;28;87751;-68
2023/01/12 11:09:57;;;;;;;1.60;0.83;;;10.50;99.90;10.40;100026.00;;;;4970723;28;89220;-67
2023/01/12 11:12:33;;;;;;;1.47;0.50;;;10.40;99.90;10.30;99997.00;;;;4971393;28;88390;-67
2023/01/12 11:15:00;;;;;;;3.57;0.80;;;10.40;99.90;10.30;100010.00;;;;4968383;28;87723;-67
2023/01/12 11:17:50;;;;;;;1.17;0.53;;;10.40;99.90;10.40;100014.00;;;;4971672;27;87754;-67
2023/01/12 11:20:40;;;;;;;2.30;0.80;;;10.30;99.90;10.40;100018.00;;;;4967506;28;89494;-68
2023/01/12 11:23:39;;;;;;;0.73;0.37;;;10.50;99.90;10.40;100007.00;;;;4974307;28;102235;-67
2023/01/12 11:26:17;;;;;;;1.07;0.53;;;10.50;99.90;10.40;99996.00;;;;4971629;28;87784;-67
2023/01/12 11:28:48;;;;;;;0.13;0.13;;;10.50;99.90;10.40;100002.00;;;;4965513;28;90275;-67
2023/01/12 11:31:22;;;;;;;0.37;0.27;;;10.50;99.90;10.50;99993.00;;;;4973577;28;89868;-67
2023/01/12 11:33:57;;;;;;;0.37;0.30;;;10.50;99.90;10.50;99984.00;;;;4967016;28;88881;-68
2023/01/12 11:36:29;;;;;;;2.67;0.87;;;10.50;99.90;10.50;99990.00;;;;4971764;28;87797;-67
2023/01/12 11:39:06;;;;;;;0.60;0.40;;;10.60;99.90;10.50;99997.00;;;;4970807;28;88098;-67
2023/01/12 11:44:43;;;;;;;2.13;0.50;;;10.60;99.90;10.60;99972.00;;;;4969207;28;89007;-67
2023/01/12 11:47:13;;;;;;;0.77;0.50;;;10.60;99.90;10.60;99975.00;;;;4972052;28;87047;-66